sensor_id;sensor_type;location;lat;lon;timestamp;pressure;altitude;pressure_sealevel;temperature;humidity
53908;BME280;40469;47.998;7.794;2023-11-19T00:01:26;99114.28;;;9.54;100.00
53908;BME280;40469;47.998;7.794;2023-11-19T00:03:51;99110.84;;;9.41;100.00
53908;BME280;40469;47.998;7.794;2023-11-19T00:06:18;99126.44;;;9.47;100.00
53908;BME280;40469;47.998;7.794;2023-11-19T00:08:44;99122.16;;;9.34;100.00
53908;BME280;40469;47.998;7.794;2023-11-19T00:11:09;99122.19;;;9.21;100.00
53908;BME280;40469;47.998;7.794;2023-11-19T00:13:34;99114.38;;;9.21;100.00
53908;BME280;40469;47.998;7.794;2023-11-19T00:16:00;99105.69;;;9.13;100.00
53908;BME280;40469;47.998;7.794;2023-11-19T00:18:25;99103.97;;;9.01;100.00
53908;BME280;40469;47.998;7.794;2023-11-19T00:20:50;99110.91;;;8.95;100.00
53908;BME280;40469;47.998;7.794;2023-11-19T00:23:16;99093.56;;;8.77;100.00
53908;BME280;40469;47.998;7.794;2023-11-19T00:25:41;99089.22;;;8.79;100.00
53908;BME280;40469;47.998;7.794;2023-11-19T00:28:06;99088.38;;;8.81;100.00
53908;BME280;40469;47.998;7.794;2023-11-19T00:30:32;99088.38;;;8.83;100.00
53908;BME280;40469;47.998;7.794;2023-11-19T00:32:57;99091.84;;;8.86;100.00
53908;BME280;40469;47.998;7.794;2023-11-19T00:35:22;99089.22;;;8.85;100.00
53908;BME280;40469;47.998;7.794;2023-11-19T00:37:48;99093.53;;;9.06;100.00
53908;BME280;40469;47.998;7.794;2023-11-19T00:40:14;99093.53;;;9.07;100.00
53908;BME280;40469;47.998;7.794;2023-11-19T00:42:42;99056.94;;;9.54;100.00
53908;BME280;40469;47.998;7.794;2023-11-19T00:45:08;99056.13;;;9.36;100.00
53908;BME280;40469;47.998;7.794;2023-11-19T00:47:35;99061.34;;;9.38;100.00
53908;BME280;40469;47.998;7.794;2023-11-19T00:50:02;99060.38;;;9.60;100.00
53908;BME280;40469;47.998;7.794;2023-11-19T00:52:27;99055.06;;;9.77;100.00
53908;BME280;40469;47.998;7.794;2023-11-19T00:54:52;99065.22;;;10.27;100.00
53908;BME280;40469;47.998;7.794;2023-11-19T00:57:18;99070.50;;;10.13;100.00
53908;BME280;40469;47.998;7.794;2023-11-19T00:59:44;99053.22;;;9.99;100.00
53908;BME280;40469;47.998;7.794;2023-11-19T01:02:09;99056.50;;;10.32;100.00
53908;BME280;40469;47.998;7.794;2023-11-19T01:04:35;99046.69;;;10.62;100.00
53908;BME280;40469;47.998;7.794;2023-11-19T01:07:02;99045.91;;;10.52;100.00
53908;BME280;40469;47.998;7.794;2023-11-19T01:09:32;99044.78;;;10.79;100.00
53908;BME280;40469;47.998;7.794;2023-11-19T01:11:58;99036.34;;;10.50;100.00
53908;BME280;40469;47.998;7.794;2023-11-19T01:14:25;99020.63;;;10.59;100.00
53908;BME280;40469;47.998;7.794;2023-11-19T01:16:50;99036.22;;;10.67;100.00
53908;BME280;40469;47.998;7.794;2023-11-19T01:19:16;99032.88;;;10.52;100.00
53908;BME280;40469;47.998;7.794;2023-11-19T01:21:41;99043.22;;;10.63;100.00
53908;BME280;40469;47.998;7.794;2023-11-19T01:24:06;99033.59;;;10.70;100.00
53908;BME280;40469;47.998;7.794;2023-11-19T01:26:34;99035.50;;;10.51;100.00
53908;BME280;40469;47.998;7.794;2023-11-19T01:29:00;99032.28;;;10.12;100.00
53908;BME280;40469;47.998;7.794;2023-11-19T01:31:26;99044.88;;;10.73;100.00
53908;BME280;40469;47.998;7.794;2023-11-19T01:33:51;99038.22;;;10.34;100.00
53908;BME280;40469;47.998;7.794;2023-11-19T01:36:17;99042.19;;;10.76;100.00
53908;BME280;40469;47.998;7.794;2023-11-19T01:38:42;99049.41;;;10.51;100.00
53908;BME280;40469;47.998;7.794;2023-11-19T01:41:07;99049.56;;;10.25;100.00
53908;BME280;40469;47.998;7.794;2023-11-19T01:43:37;99056.63;;;10.12;100.00
53908;BME280;40469;47.998;7.794;2023-11-19T01:46:05;99050.53;;;10.12;100.00
53908;BME280;40469;47.998;7.794;2023-11-19T01:48:32;99064.38;;;10.23;100.00
53908;BME280;40469;47.998;7.794;2023-11-19T01:50:59;99046.88;;;10.37;100.00
53908;BME280;40469;47.998;7.794;2023-11-19T01:53:25;99050.63;;;9.99;100.00
53908;BME280;40469;47.998;7.794;2023-11-19T01:55:51;99058.28;;;10.25;100.00
53908;BME280;40469;47.998;7.794;2023-11-19T01:58:18;99054.91;;;10.10;100.00
53908;BME280;40469;47.998;7.794;2023-11-19T02:00:44;99061.91;;;9.95;100.00
53908;BME280;40469;47.998;7.794;2023-11-19T02:03:10;99062.88;;;9.86;100.00
53908;BME280;40469;47.998;7.794;2023-11-19T02:05:37;99044.53;;;9.97;100.00
53908;BME280;40469;47.998;7.794;2023-11-19T02:08:02;99045.38;;;10.02;100.00
53908;BME280;40469;47.998;7.794;2023-11-19T02:10:28;99051.47;;;9.97;100.00
53908;BME280;40469;47.998;7.794;2023-11-19T02:12:53;99050.75;;;9.76;100.00
53908;BME280;40469;47.998;7.794;2023-11-19T02:15:20;99051.59;;;9.81;100.00
53908;BME280;40469;47.998;7.794;2023-11-19T02:17:47;99050.69;;;9.82;100.00
53908;BME280;40469;47.998;7.794;2023-11-19T02:20:12;99055.06;;;9.83;100.00
53908;BME280;40469;47.998;7.794;2023-11-19T02:22:40;99051.59;;;9.77;100.00
53908;BME280;40469;47.998;7.794;2023-11-19T02:25:07;99049.84;;;9.85;100.00
53908;BME280;40469;47.998;7.794;2023-11-19T02:30:01;99042.03;;;9.77;100.00
53908;BME280;40469;47.998;7.794;2023-11-19T02:32:31;99039.41;;;9.82;100.00
53908;BME280;40469;47.998;7.794;2023-11-19T02:34:56;99053.25;;;9.93;100.00
53908;BME280;40469;47.998;7.794;2023-11-19T02:37:21;99047.16;;;9.99;100.00
53908;BME280;40469;47.998;7.794;2023-11-19T02:39:47;99041.97;;;9.91;100.00
53908;BME280;40469;47.998;7.794;2023-11-19T02:42:12;99046.38;;;9.83;100.00
53908;BME280;40469;47.998;7.794;2023-11-19T02:44:43;99041.19;;;9.74;100.00
53908;BME280;40469;47.998;7.794;2023-11-19T02:47:09;99050.75;;;9.73;100.00
53908;BME280;40469;47.998;7.794;2023-11-19T02:49:34;99047.34;;;9.60;100.00
53908;BME280;40469;47.998;7.794;2023-11-19T02:51:59;99046.44;;;9.64;100.00
53908;BME280;40469;47.998;7.794;2023-11-19T02:54:25;99049.91;;;9.68;100.00
53908;BME280;40469;47.998;7.794;2023-11-19T02:56:52;99064.66;;;9.75;100.00
53908;BME280;40469;47.998;7.794;2023-11-19T02:59:21;99058.53;;;9.82;100.00
53908;BME280;40469;47.998;7.794;2023-11-19T03:01:56;99051.63;;;9.72;100.00
53908;BME280;40469;47.998;7.794;2023-11-19T03:04:22;99055.97;;;9.70;100.00
53908;BME280;40469;47.998;7.794;2023-11-19T03:06:48;99052.44;;;9.83;100.00
53908;BME280;40469;47.998;7.794;2023-11-19T03:09:14;99040.31;;;9.78;100.00
53908;BME280;40469;47.998;7.794;2023-11-19T03:11:39;99035.06;;;9.81;100.00
53908;BME280;40469;47.998;7.794;2023-11-19T03:14:04;99037.66;;;9.84;100.00
53908;BME280;40469;47.998;7.794;2023-11-19T03:16:29;99033.38;;;9.72;100.00
53908;BME280;40469;47.998;7.794;2023-11-19T03:18:55;99027.28;;;9.72;100.00
53908;BME280;40469;47.998;7.794;2023-11-19T03:21:30;99026.38;;;9.79;100.00
53908;BME280;40469;47.998;7.794;2023-11-19T03:23:57;99026.31;;;9.90;100.00
53908;BME280;40469;47.998;7.794;2023-11-19T03:26:28;99014.19;;;9.84;100.00
53908;BME280;40469;47.998;7.794;2023-11-19T03:28:53;99028.88;;;9.99;100.00
53908;BME280;40469;47.998;7.794;2023-11-19T03:31:19;99039.41;;;9.82;100.00
53908;BME280;40469;47.998;7.794;2023-11-19T03:33:45;99030.66;;;9.89;100.00
53908;BME280;40469;47.998;7.794;2023-11-19T03:36:10;99035.09;;;9.76;100.00
53908;BME280;40469;47.998;7.794;2023-11-19T03:38:36;99046.31;;;9.87;100.00
53908;BME280;40469;47.998;7.794;2023-11-19T03:41:10;99041.94;;;9.97;100.00
53908;BME280;40469;47.998;7.794;2023-11-19T03:43:35;99039.34;;;9.94;100.00
53908;BME280;40469;47.998;7.794;2023-11-19T03:46:00;99035.88;;;9.92;100.00
53908;BME280;40469;47.998;7.794;2023-11-19T03:48:26;99028.00;;;10.00;100.00
53908;BME280;40469;47.998;7.794;2023-11-19T03:50:51;99035.75;;;10.11;100.00
53908;BME280;40469;47.998;7.794;2023-11-19T03:53:16;99029.69;;;10.04;100.00
53908;BME280;40469;47.998;7.794;2023-11-19T03:55:43;99027.03;;;10.15;100.00
53908;BME280;40469;47.998;7.794;2023-11-19T03:58:09;99009.75;;;10.00;100.00
53908;BME280;40469;47.998;7.794;2023-11-19T04:00:34;99027.91;;;10.15;100.00
53908;BME280;40469;47.998;7.794;2023-11-19T04:03:00;99037.56;;;9.98;100.00
53908;BME280;40469;47.998;7.794;2023-11-19T04:05:25;99049.59;;;10.22;100.00
53908;BME280;40469;47.998;7.794;2023-11-19T04:07:51;99045.34;;;10.09;100.00
53908;BME280;40469;47.998;7.794;2023-11-19T04:10:16;99037.56;;;10.02;100.00
53908;BME280;40469;47.998;7.794;2023-11-19T04:12:42;99035.72;;;10.14;100.00
53908;BME280;40469;47.998;7.794;2023-11-19T04:15:08;99031.44;;;10.06;100.00
53908;BME280;40469;47.998;7.794;2023-11-19T04:17:34;99014.13;;;9.92;100.00
53908;BME280;40469;47.998;7.794;2023-11-19T04:19:59;99050.47;;;10.21;100.00
53908;BME280;40469;47.998;7.794;2023-11-19T04:22:24;99021.72;;;10.27;100.00
53908;BME280;40469;47.998;7.794;2023-11-19T04:24:50;99022.72;;;10.09;100.00
53908;BME280;40469;47.998;7.794;2023-11-19T04:27:15;99025.25;;;10.20;100.00
53908;BME280;40469;47.998;7.794;2023-11-19T04:29:41;99019.97;;;10.29;100.00
53908;BME280;40469;47.998;7.794;2023-11-19T04:32:06;99027.06;;;10.09;100.00
53908;BME280;40469;47.998;7.794;2023-11-19T04:34:32;99022.69;;;10.15;100.00
53908;BME280;40469;47.998;7.794;2023-11-19T04:36:57;99016.41;;;10.41;100.00
53908;BME280;40469;47.998;7.794;2023-11-19T04:39:26;99013.75;;;10.47;100.00
53908;BME280;40469;47.998;7.794;2023-11-19T04:41:52;99012.75;;;10.60;100.00
53908;BME280;40469;47.998;7.794;2023-11-19T04:44:18;99018.88;;;10.58;100.00
53908;BME280;40469;47.998;7.794;2023-11-19T04:46:44;99024.94;;;10.65;100.00
53908;BME280;40469;47.998;7.794;2023-11-19T04:49:10;99029.25;;;10.66;100.00
53908;BME280;40469;47.998;7.794;2023-11-19T04:51:42;99037.16;;;10.58;100.00
53908;BME280;40469;47.998;7.794;2023-11-19T04:54:08;99032.88;;;10.52;100.00
53908;BME280;40469;47.998;7.794;2023-11-19T04:56:35;99048.44;;;10.60;100.00
53908;BME280;40469;47.998;7.794;2023-11-19T04:59:02;99036.31;;;10.57;100.00
53908;BME280;40469;47.998;7.794;2023-11-19T05:01:27;99032.69;;;10.71;100.00
53908;BME280;40469;47.998;7.794;2023-11-19T05:03:53;99023.84;;;10.87;100.00
53908;BME280;40469;47.998;7.794;2023-11-19T05:06:21;99031.00;;;10.63;100.00
53908;BME280;40469;47.998;7.794;2023-11-19T05:08:47;99044.06;;;10.67;100.00
53908;BME280;40469;47.998;7.794;2023-11-19T05:11:12;99050.84;;;10.83;100.00
53908;BME280;40469;47.998;7.794;2023-11-19T05:13:42;99043.81;;;10.91;100.00
53908;BME280;40469;47.998;7.794;2023-11-19T05:16:10;99041.41;;;10.70;100.00
53908;BME280;40469;47.998;7.794;2023-11-19T05:18:36;99051.91;;;10.62;100.00
53908;BME280;40469;47.998;7.794;2023-11-19T05:21:01;99053.53;;;10.77;100.00
53908;BME280;40469;47.998;7.794;2023-11-19T05:23:26;99048.41;;;10.68;100.00
53908;BME280;40469;47.998;7.794;2023-11-19T05:25:52;99055.13;;;10.90;100.00
53908;BME280;40469;47.998;7.794;2023-11-19T05:28:17;99038.72;;;10.77;100.00
53908;BME280;40469;47.998;7.794;2023-11-19T05:30:42;99045.78;;;10.68;100.00
53908;BME280;40469;47.998;7.794;2023-11-19T05:33:08;99037.81;;;10.81;100.00
53908;BME280;40469;47.998;7.794;2023-11-19T05:35:34;99037.78;;;10.85;100.00
53908;BME280;40469;47.998;7.794;2023-11-19T05:37:59;99037.88;;;10.78;100.00
53908;BME280;40469;47.998;7.794;2023-11-19T05:40:25;99037.66;;;10.98;100.00
53908;BME280;40469;47.998;7.794;2023-11-19T05:42:50;99034.19;;;10.98;100.00
53908;BME280;40469;47.998;7.794;2023-11-19T05:45:15;99040.16;;;11.06;100.00
53908;BME280;40469;47.998;7.794;2023-11-19T05:47:41;99047.16;;;11.06;100.00
53908;BME280;40469;47.998;7.794;2023-11-19T05:50:07;99038.47;;;11.04;100.00
53908;BME280;40469;47.998;7.794;2023-11-19T05:52:33;99048.00;;;11.08;100.00
53908;BME280;40469;47.998;7.794;2023-11-19T05:55:00;99035.97;;;10.94;100.00
53908;BME280;40469;47.998;7.794;2023-11-19T05:57:29;99037.63;;;11.03;100.00
53908;BME280;40469;47.998;7.794;2023-11-19T05:59:54;99038.47;;;11.02;100.00
53908;BME280;40469;47.998;7.794;2023-11-19T06:02:19;99046.59;;;10.73;100.00
53908;BME280;40469;47.998;7.794;2023-11-19T06:04:45;99043.59;;;11.11;100.00
53908;BME280;40469;47.998;7.794;2023-11-19T06:07:13;99058.34;;;11.17;100.00
53908;BME280;40469;47.998;7.794;2023-11-19T06:09:38;99055.13;;;10.93;100.00
53908;BME280;40469;47.998;7.794;2023-11-19T06:12:04;99062.03;;;10.97;100.00
53908;BME280;40469;47.998;7.794;2023-11-19T06:14:31;99063.78;;;10.98;100.00
53908;BME280;40469;47.998;7.794;2023-11-19T06:16:56;99069.72;;;11.11;100.00
53908;BME280;40469;47.998;7.794;2023-11-19T06:19:22;99056.66;;;11.13;100.00
53908;BME280;40469;47.998;7.794;2023-11-19T06:21:49;99055.72;;;11.17;100.00
53908;BME280;40469;47.998;7.794;2023-11-19T06:24:15;99042.75;;;11.09;100.00
53908;BME280;40469;47.998;7.794;2023-11-19T06:26:40;99052.13;;;11.30;100.00
53908;BME280;40469;47.998;7.794;2023-11-19T06:29:05;99053.09;;;11.18;100.00
53908;BME280;40469;47.998;7.794;2023-11-19T06:31:31;99042.78;;;11.08;100.00
53908;BME280;40469;47.998;7.794;2023-11-19T06:33:56;99045.22;;;11.25;100.00
53908;BME280;40469;47.998;7.794;2023-11-19T06:36:21;99033.94;;;11.21;100.00
53908;BME280;40469;47.998;7.794;2023-11-19T06:38:47;99038.19;;;11.30;100.00
53908;BME280;40469;47.998;7.794;2023-11-19T06:41:12;99035.47;;;11.37;100.00
53908;BME280;40469;47.998;7.794;2023-11-19T06:43:37;99027.81;;;11.22;100.00
53908;BME280;40469;47.998;7.794;2023-11-19T06:46:03;99026.28;;;11.03;100.00
53908;BME280;40469;47.998;7.794;2023-11-19T06:48:32;99040.84;;;11.25;100.00
53908;BME280;40469;47.998;7.794;2023-11-19T06:50:57;99045.25;;;11.22;100.00
53908;BME280;40469;47.998;7.794;2023-11-19T06:53:22;99057.16;;;11.47;100.00
53908;BME280;40469;47.998;7.794;2023-11-19T06:55:48;99042.63;;;11.22;100.00
53908;BME280;40469;47.998;7.794;2023-11-19T06:58:13;99038.25;;;11.24;100.00
53908;BME280;40469;47.998;7.794;2023-11-19T07:00:38;99039.22;;;11.13;100.00
53908;BME280;40469;47.998;7.794;2023-11-19T07:03:04;99032.81;;;11.42;100.00
53908;BME280;40469;47.998;7.794;2023-11-19T07:05:31;99040.88;;;11.22;100.00
53908;BME280;40469;47.998;7.794;2023-11-19T07:07:56;99043.19;;;11.47;100.00
53908;BME280;40469;47.998;7.794;2023-11-19T07:10:21;99038.09;;;11.36;100.00
53908;BME280;40469;47.998;7.794;2023-11-19T07:12:47;99050.91;;;11.57;100.00
53908;BME280;40469;47.998;7.794;2023-11-19T07:15:15;99043.09;;;11.56;100.00
53908;BME280;40469;47.998;7.794;2023-11-19T07:17:42;99050.88;;;11.61;100.00
53908;BME280;40469;47.998;7.794;2023-11-19T07:20:10;99057.81;;;11.65;100.00
53908;BME280;40469;47.998;7.794;2023-11-19T07:22:38;99061.50;;;11.45;100.00
53908;BME280;40469;47.998;7.794;2023-11-19T07:25:04;99054.41;;;11.60;100.00
53908;BME280;40469;47.998;7.794;2023-11-19T07:27:29;99059.69;;;11.53;100.00
53908;BME280;40469;47.998;7.794;2023-11-19T07:29:55;99064.19;;;11.44;100.00
53908;BME280;40469;47.998;7.794;2023-11-19T07:32:20;99070.75;;;11.77;100.00
53908;BME280;40469;47.998;7.794;2023-11-19T07:34:45;99071.72;;;11.68;100.00
53908;BME280;40469;47.998;7.794;2023-11-19T07:37:11;99079.75;;;11.53;100.00
53908;BME280;40469;47.998;7.794;2023-11-19T07:39:37;99077.84;;;11.64;100.00
53908;BME280;40469;47.998;7.794;2023-11-19T07:42:05;99072.72;;;11.56;100.00
53908;BME280;40469;47.998;7.794;2023-11-19T07:44:31;99076.28;;;11.52;100.00
53908;BME280;40469;47.998;7.794;2023-11-19T07:46:57;99087.34;;;11.71;100.00
53908;BME280;40469;47.998;7.794;2023-11-19T07:49:23;99087.28;;;11.77;100.00
53908;BME280;40469;47.998;7.794;2023-11-19T07:51:49;99093.13;;;12.00;100.00
53908;BME280;40469;47.998;7.794;2023-11-19T07:54:14;99111.41;;;12.04;100.00
53908;BME280;40469;47.998;7.794;2023-11-19T07:56:39;99099.50;;;11.77;100.00
53908;BME280;40469;47.998;7.794;2023-11-19T07:59:05;99103.84;;;11.78;100.00
53908;BME280;40469;47.998;7.794;2023-11-19T08:01:30;99117.63;;;11.95;100.00
53908;BME280;40469;47.998;7.794;2023-11-19T08:03:55;99104.81;;;11.69;100.00
53908;BME280;40469;47.998;7.794;2023-11-19T08:06:21;99096.00;;;11.78;100.00
53908;BME280;40469;47.998;7.794;2023-11-19T08:08:46;99114.16;;;11.93;100.00
53908;BME280;40469;47.998;7.794;2023-11-19T08:11:13;99108.00;;;11.96;100.00
53908;BME280;40469;47.998;7.794;2023-11-19T08:13:38;99109.91;;;11.80;100.00
53908;BME280;40469;47.998;7.794;2023-11-19T08:16:04;99115.00;;;11.95;100.00
53908;BME280;40469;47.998;7.794;2023-11-19T08:18:30;99123.81;;;11.84;100.00
53908;BME280;40469;47.998;7.794;2023-11-19T08:20:56;99110.06;;;11.66;100.00
53908;BME280;40469;47.998;7.794;2023-11-19T08:23:23;99102.97;;;11.81;100.00
53908;BME280;40469;47.998;7.794;2023-11-19T08:25:51;99103.81;;;11.81;100.00
53908;BME280;40469;47.998;7.794;2023-11-19T08:28:16;99100.53;;;11.64;100.00
53908;BME280;40469;47.998;7.794;2023-11-19T08:30:41;99093.06;;;12.06;100.00
53908;BME280;40469;47.998;7.794;2023-11-19T08:33:09;99088.94;;;11.85;100.00
53908;BME280;40469;47.998;7.794;2023-11-19T08:35:34;99091.22;;;12.12;100.00
53908;BME280;40469;47.998;7.794;2023-11-19T08:37:59;99100.97;;;12.01;100.00
53908;BME280;40469;47.998;7.794;2023-11-19T08:40:25;99105.16;;;12.13;100.00
53908;BME280;40469;47.998;7.794;2023-11-19T08:42:55;99105.47;;;11.91;100.00
53908;BME280;40469;47.998;7.794;2023-11-19T08:45:21;99100.16;;;11.94;100.00
53908;BME280;40469;47.998;7.794;2023-11-19T08:47:46;99100.00;;;12.07;100.00
53908;BME280;40469;47.998;7.794;2023-11-19T08:50:12;99104.31;;;12.12;100.00
53908;BME280;40469;47.998;7.794;2023-11-19T08:52:37;99105.47;;;11.91;100.00
53908;BME280;40469;47.998;7.794;2023-11-19T08:55:04;99111.88;;;12.32;100.00
53908;BME280;40469;47.998;7.794;2023-11-19T08:57:31;99103.25;;;12.24;100.00
53908;BME280;40469;47.998;7.794;2023-11-19T08:59:56;99097.97;;;12.27;100.00
53908;BME280;40469;47.998;7.794;2023-11-19T09:02:21;99094.09;;;11.91;100.00
53908;BME280;40469;47.998;7.794;2023-11-19T09:04:47;99098.44;;;11.95;100.00
53908;BME280;40469;47.998;7.794;2023-11-19T09:07:12;99098.81;;;12.29;100.00
53908;BME280;40469;47.998;7.794;2023-11-19T09:09:38;99088.59;;;12.12;100.00
53908;BME280;40469;47.998;7.794;2023-11-19T09:12:03;99109.59;;;12.09;100.00
53908;BME280;40469;47.998;7.794;2023-11-19T09:14:29;99108.19;;;12.46;100.00
53908;BME280;40469;47.998;7.794;2023-11-19T09:16:55;99110.66;;;12.57;100.00
53908;BME280;40469;47.998;7.794;2023-11-19T09:19:21;99117.34;;;12.14;100.00
53908;BME280;40469;47.998;7.794;2023-11-19T09:21:46;99110.19;;;12.28;100.00
53908;BME280;40469;47.998;7.794;2023-11-19T09:24:13;99119.75;;;12.29;100.00
53908;BME280;40469;47.998;7.794;2023-11-19T09:26:38;99120.31;;;12.51;100.00
53908;BME280;40469;47.998;7.794;2023-11-19T09:29:06;99130.06;;;12.40;100.00
53908;BME280;40469;47.998;7.794;2023-11-19T09:31:32;99135.25;;;12.46;100.00
53908;BME280;40469;47.998;7.794;2023-11-19T09:33:58;99131.84;;;12.38;100.00
53908;BME280;40469;47.998;7.794;2023-11-19T09:36:23;99123.94;;;12.43;100.00
53908;BME280;40469;47.998;7.794;2023-11-19T09:38:48;99121.56;;;12.26;100.00
53908;BME280;40469;47.998;7.794;2023-11-19T09:41:14;99135.25;;;12.46;100.00
53908;BME280;40469;47.998;7.794;2023-11-19T09:43:41;99121.22;;;12.49;100.00
53908;BME280;40469;47.998;7.794;2023-11-19T09:46:09;99119.72;;;12.32;100.00
53908;BME280;40469;47.998;7.794;2023-11-19T09:48:37;99126.63;;;12.38;100.00
53908;BME280;40469;47.998;7.794;2023-11-19T09:51:04;99114.44;;;12.37;100.00
53908;BME280;40469;47.998;7.794;2023-11-19T09:53:30;99112.47;;;12.51;100.00
53908;BME280;40469;47.998;7.794;2023-11-19T09:55:58;99097.81;;;12.40;100.00
53908;BME280;40469;47.998;7.794;2023-11-19T09:58:26;99100.56;;;12.30;100.00
53908;BME280;40469;47.998;7.794;2023-11-19T10:00:51;99099.47;;;12.44;100.00
53908;BME280;40469;47.998;7.794;2023-11-19T10:03:17;99092.31;;;12.57;100.00
53908;BME280;40469;47.998;7.794;2023-11-19T10:05:43;99108.03;;;12.57;100.00
53908;BME280;40469;47.998;7.794;2023-11-19T10:08:08;99117.88;;;12.41;100.00
53908;BME280;40469;47.998;7.794;2023-11-19T10:10:36;99100.09;;;12.60;100.00
53908;BME280;40469;47.998;7.794;2023-11-19T10:13:01;99102.75;;;12.58;100.00
53908;BME280;40469;47.998;7.794;2023-11-19T10:15:27;99117.44;;;12.67;100.00
53908;BME280;40469;47.998;7.794;2023-11-19T10:17:55;99113.47;;;12.44;100.00
53908;BME280;40469;47.998;7.794;2023-11-19T10:20:21;99113.28;;;12.57;100.00
53908;BME280;40469;47.998;7.794;2023-11-19T10:22:47;99113.16;;;12.63;100.00
53908;BME280;40469;47.998;7.794;2023-11-19T10:25:25;99105.16;;;12.72;100.00
53908;BME280;40469;47.998;7.794;2023-11-19T10:27:52;99098.09;;;12.76;100.00
53908;BME280;40469;47.998;7.794;2023-11-19T10:30:23;99090.44;;;12.63;100.00
53908;BME280;40469;47.998;7.794;2023-11-19T10:33:14;99101.66;;;12.73;100.00
53908;BME280;40469;47.998;7.794;2023-11-19T10:35:53;99095.38;;;12.82;100.00
53908;BME280;40469;47.998;7.794;2023-11-19T10:38:19;99098.75;;;12.90;100.00
53908;BME280;40469;47.998;7.794;2023-11-19T10:40:44;99098.97;;;12.78;100.00
53908;BME280;40469;47.998;7.794;2023-11-19T10:43:10;99083.06;;;12.88;100.00
53908;BME280;40469;47.998;7.794;2023-11-19T10:45:36;99085.38;;;13.05;100.00
53908;BME280;40469;47.998;7.794;2023-11-19T10:48:03;99084.13;;;13.25;100.00
53908;BME280;40469;47.998;7.794;2023-11-19T10:50:35;99091.38;;;13.11;100.00
53908;BME280;40469;47.998;7.794;2023-11-19T10:53:02;99095.72;;;13.13;100.00
53908;BME280;40469;47.998;7.794;2023-11-19T10:55:30;99085.34;;;13.07;100.00
53908;BME280;40469;47.998;7.794;2023-11-19T10:58:08;99082.75;;;13.04;100.00
53908;BME280;40469;47.998;7.794;2023-11-19T11:00:54;99083.56;;;13.07;100.00
53908;BME280;40469;47.998;7.794;2023-11-19T11:03:22;99071.38;;;13.06;100.00
53908;BME280;40469;47.998;7.794;2023-11-19T11:05:51;99076.44;;;13.16;100.00
53908;BME280;40469;47.998;7.794;2023-11-19T11:08:17;99069.19;;;13.30;100.00
53908;BME280;40469;47.998;7.794;2023-11-19T11:10:45;99091.47;;;13.54;100.00
53908;BME280;40469;47.998;7.794;2023-11-19T11:13:11;99093.56;;;13.37;100.00
53908;BME280;40469;47.998;7.794;2023-11-19T11:15:37;99072.81;;;13.70;100.00
53908;BME280;40469;47.998;7.794;2023-11-19T11:18:03;99071.03;;;13.70;100.00
53908;BME280;40469;47.998;7.794;2023-11-19T11:20:32;99071.09;;;13.67;100.00
53908;BME280;40469;47.998;7.794;2023-11-19T11:28:41;99080.34;;;13.43;100.00
53908;BME280;40469;47.998;7.794;2023-11-19T11:31:09;99088.16;;;13.44;100.00
53908;BME280;40469;47.998;7.794;2023-11-19T11:33:59;99081.50;;;13.25;100.00
53908;BME280;40469;47.998;7.794;2023-11-19T11:36:31;99065.81;;;13.23;100.00
53908;BME280;40469;47.998;7.794;2023-11-19T11:39:00;99061.91;;;13.46;100.00
53908;BME280;40469;47.998;7.794;2023-11-19T11:41:26;99064.06;;;13.24;100.00
53908;BME280;40469;47.998;7.794;2023-11-19T11:43:53;99058.66;;;13.33;100.00
53908;BME280;40469;47.998;7.794;2023-11-19T11:49:05;99060.44;;;13.30;100.00
53908;BME280;40469;47.998;7.794;2023-11-19T11:54:30;99049.13;;;13.27;100.00
53908;BME280;40469;47.998;7.794;2023-11-19T11:57:03;99055.09;;;13.37;100.00
53908;BME280;40469;47.998;7.794;2023-11-19T11:59:48;99055.16;;;13.34;100.00
53908;BME280;40469;47.998;7.794;2023-11-19T12:02:19;99049.00;;;13.35;100.00
53908;BME280;40469;47.998;7.794;2023-11-19T12:04:50;99042.19;;;13.23;100.00
53908;BME280;40469;47.998;7.794;2023-11-19T12:07:21;99046.59;;;13.23;100.00
53908;BME280;40469;47.998;7.794;2023-11-19T12:10:06;99045.75;;;13.21;100.00
53908;BME280;40469;47.998;7.794;2023-11-19T12:12:37;99047.59;;;13.17;100.00
53908;BME280;40469;47.998;7.794;2023-11-19T12:15:09;99057.91;;;13.25;100.00
53908;BME280;40469;47.998;7.794;2023-11-19T12:17:46;99050.94;;;13.25;100.00
53908;BME280;40469;47.998;7.794;2023-11-19T12:20:14;99049.16;;;13.26;100.00
53908;BME280;40469;47.998;7.794;2023-11-19T12:22:42;99036.03;;;13.27;100.00
53908;BME280;40469;47.998;7.794;2023-11-19T12:25:09;99052.63;;;13.28;100.00
53908;BME280;40469;47.998;7.794;2023-11-19T12:27:48;99053.44;;;13.32;100.00
53908;BME280;40469;47.998;7.794;2023-11-19T12:30:26;99035.91;;;13.35;100.00
53908;BME280;40469;47.998;7.794;2023-11-19T12:32:52;99039.53;;;13.26;100.00
53908;BME280;40469;47.998;7.794;2023-11-19T12:35:20;99045.78;;;13.19;100.00
53908;BME280;40469;47.998;7.794;2023-11-19T12:37:47;99036.81;;;13.34;100.00
53908;BME280;40469;47.998;7.794;2023-11-19T12:40:18;99035.88;;;13.37;100.00
53908;BME280;40469;47.998;7.794;2023-11-19T12:42:47;99037.88;;;13.22;100.00
53908;BME280;40469;47.998;7.794;2023-11-19T12:45:13;99030.63;;;13.37;100.00
53908;BME280;40469;47.998;7.794;2023-11-19T12:47:43;99047.13;;;13.42;100.00
53908;BME280;40469;47.998;7.794;2023-11-19T12:50:09;99041.03;;;13.41;100.00
53908;BME280;40469;47.998;7.794;2023-11-19T12:52:36;99048.00;;;13.42;100.00
53908;BME280;40469;47.998;7.794;2023-11-19T12:55:03;99039.28;;;13.42;100.00
53908;BME280;40469;47.998;7.794;2023-11-19T12:57:39;99041.03;;;13.41;100.00
53908;BME280;40469;47.998;7.794;2023-11-19T13:00:05;99036.66;;;13.42;100.00
53908;BME280;40469;47.998;7.794;2023-11-19T13:02:45;99019.09;;;13.45;100.00
53908;BME280;40469;47.998;7.794;2023-11-19T13:05:28;99014.38;;;13.61;100.00